Time;durP1;ratioP1;P1;durP2;ratioP2;P2;SDS_P1;SDS_P2;PMS_P1;PMS_P2;Temp;Humidity;BMP_temperature;BMP_pressure;BME280_temperature;BME280_humidity;BME280_pressure;Samples;Min_cycle;Max_cycle;Signal;HPM_P1;HPM_P2
2021/12/13 00:00:09;;;;;;;64.00;21.50;;;;;;;-1.77;100.00;100685.12;100099;1341;73401;-68
2021/12/13 00:03:59;;;;;;;69.60;23.00;;;;;;;-1.74;100.00;100683.66;100419;1340;59736;-67
2021/12/13 00:07:04;;;;;;;54.20;20.20;;;;;;;-1.69;100.00;100680.27;99579;1340;61186;-67
2021/12/13 00:09:58;;;;;;;56.10;18.80;;;;;;;-1.63;100.00;100685.75;99608;1340;72221;-68
2021/12/13 00:12:58;;;;;;;40.40;13.90;;;;;;;-1.60;100.00;100682.91;99604;1346;66459;-68
2021/12/13 00:15:56;;;;;;;45.90;16.30;;;;;;;-1.58;99.99;100686.33;99558;1346;71621;-68
2021/12/13 00:18:54;;;;;;;58.50;19.60;;;;;;;-1.58;99.99;100693.48;99707;1347;60004;-68
2021/12/13 00:21:57;;;;;;;57.60;20.00;;;;;;;-1.57;99.90;100691.73;99680;1339;59756;-68
2021/12/13 00:24:48;;;;;;;59.90;19.90;;;;;;;-1.56;99.87;100699.55;99536;1343;72254;-68
2021/12/13 00:27:50;;;;;;;53.00;18.40;;;;;;;-1.52;99.87;100701.92;99472;1348;67046;-67
2021/12/13 00:31:25;;;;;;;54.20;18.80;;;;;;;-1.50;99.72;100703.78;99528;1340;72038;-67
2021/12/13 00:34:30;;;;;;;51.80;17.50;;;;;;;-1.46;99.80;100700.41;99723;1341;59761;-68
2021/12/13 00:37:29;;;;;;;57.40;20.00;;;;;;;-1.46;99.63;100700.42;99650;1342;60940;-70
2021/12/13 00:40:33;;;;;;;57.20;19.10;;;;;;;-1.48;99.42;100703.76;99650;1343;73534;-67
2021/12/13 00:43:35;;;;;;;60.00;18.50;;;;;;;-1.48;99.63;100702.89;99812;1337;68486;-67
2021/12/13 00:46:28;;;;;;;56.50;17.80;;;;;;;-1.49;99.67;100699.25;100163;1342;73184;-67
2021/12/13 00:49:24;;;;;;;52.00;17.20;;;;;;;-1.49;99.60;100693.50;100209;1342;60110;-67
2021/12/13 00:52:19;;;;;;;37.20;12.80;;;;;;;-1.50;99.56;100689.17;99841;1342;60781;-67
2021/12/13 00:55:35;;;;;;;50.70;16.00;;;;;;;-1.53;99.65;100684.70;99874;1339;73923;-67
2021/12/13 00:58:25;;;;;;;51.70;18.20;;;;;;;-1.56;99.90;100685.27;100024;1342;69405;-67
2021/12/13 01:01:14;;;;;;;39.60;14.50;;;;;;;-1.54;100.00;100681.05;99856;1339;73152;-68
2021/12/13 01:04:14;;;;;;;49.90;16.50;;;;;;;-1.52;99.94;100677.52;100088;1336;59825;-68
2021/12/13 01:08:04;;;;;;;41.60;14.50;;;;;;;-1.52;99.97;100678.25;100280;1342;59823;-67
2021/12/13 01:11:15;;;;;;;44.40;16.10;;;;;;;-1.55;99.99;100677.77;100218;1342;73281;-67
2021/12/13 01:14:38;;;;;;;60.40;17.80;;;;;;;-1.58;100.00;100673.48;100075;1336;67115;-67
2021/12/13 01:21:00;;;;;;;48.50;16.70;;;;;;;-1.58;100.00;100670.17;100300;1338;59732;-67
2021/12/13 01:23:54;;;;;;;45.20;14.90;;;;;;;-1.61;100.00;100668.48;100087;1343;59968;-68
2021/12/13 01:26:49;;;;;;;46.50;15.90;;;;;;;-1.65;100.00;100678.29;100126;1336;74042;-68
2021/12/13 01:29:38;;;;;;;58.30;18.10;;;;;;;-1.73;100.00;100669.38;100325;1337;67069;-68
2021/12/13 01:32:42;;;;;;;55.10;18.60;;;;;;;-1.74;100.00;100675.49;99469;1336;1002802;-68
2021/12/13 01:35:41;;;;;;;34.70;12.10;;;;;;;-1.78;100.00;100673.81;100387;1336;59762;-69
2021/12/13 01:38:45;;;;;;;52.40;18.10;;;;;;;-1.79;100.00;100678.88;99924;1337;61184;-68
2021/12/13 01:42:03;;;;;;;38.30;14.10;;;;;;;-1.82;100.00;100672.33;100090;1339;71996;-68
2021/12/13 01:45:00;;;;;;;48.60;16.80;;;;;;;-1.87;100.00;100672.23;99513;1339;68277;-68
2021/12/13 01:47:49;;;;;;;49.60;15.90;;;;;;;-1.90;100.00;100673.33;99803;1340;73120;-68
2021/12/13 01:50:48;;;;;;;40.90;14.70;;;;;;;-1.93;100.00;100678.06;99563;1340;59712;-68
2021/12/13 01:54:02;;;;;;;43.00;14.50;;;;;;;-1.97;100.00;100680.40;99540;1339;60893;-67
2021/12/13 02:00:18;;;;;;;53.20;18.00;;;;;;;-2.02;100.00;100681.16;99717;1340;67317;-67
2021/12/13 02:03:07;;;;;;;57.10;19.40;;;;;;;-2.01;100.00;100683.58;99742;1346;73418;-67
2021/12/13 02:05:57;;;;;;;44.80;16.50;;;;;;;-2.00;100.00;100683.40;99696;1347;59685;-67
2021/12/13 02:08:52;;;;;;;45.50;14.90;;;;;;;-1.99;100.00;100683.75;99588;1346;60688;-67
2021/12/13 02:11:46;;;;;;;37.90;13.10;;;;;;;-1.99;100.00;100687.04;99664;1346;74010;-67
2021/12/13 02:14:35;;;;;;;45.00;15.70;;;;;;;-2.00;100.00;100690.01;99784;1347;67090;-67
2021/12/13 02:17:25;;;;;;;54.30;19.30;;;;;;;-1.99;100.00;100692.95;99509;1339;72086;-68
2021/12/13 02:20:27;;;;;;;53.50;18.80;;;;;;;-1.96;100.00;100695.16;99493;1343;60058;-67
2021/12/13 02:23:20;;;;;;;46.90;16.20;;;;;;;-1.89;100.00;100703.05;100031;1337;59671;-67
2021/12/13 02:26:10;;;;;;;37.70;15.00;;;;;;;-1.83;100.00;100705.39;100078;1337;72174;-67
2021/12/13 02:29:34;;;;;;;43.40;14.80;;;;;;;-1.76;100.00;100698.13;99960;1343;66060;-67
2021/12/13 02:32:28;;;;;;;34.80;11.30;;;;;;;-1.69;100.00;100693.85;99901;1340;71751;-67
2021/12/13 02:35:22;;;;;;;51.00;18.00;;;;;;;-1.68;100.00;100688.27;100391;1340;59844;-67
2021/12/13 02:38:14;;;;;;;36.10;13.00;;;;;;;-1.65;100.00;100688.05;100482;1340;59637;-68
2021/12/13 02:41:06;;;;;;;48.80;18.10;;;;;;;-1.63;100.00;100688.17;100246;1340;72474;-67
2021/12/13 02:44:08;;;;;;;38.30;13.90;;;;;;;-1.62;100.00;100690.08;100117;1340;68599;-67
2021/12/13 02:47:03;;;;;;;36.30;14.20;;;;;;;-1.61;100.00;100693.54;100261;1337;73314;-67
2021/12/13 02:49:54;;;;;;;42.70;15.30;;;;;;;-1.61;100.00;100692.14;100005;1336;59843;-67
2021/12/13 02:52:45;;;;;;;45.90;13.60;;;;;;;-1.59;100.00;100690.04;100082;1337;60715;-67
2021/12/13 02:55:35;;;;;;;45.00;17.70;;;;;;;-1.56;100.00;100693.80;100072;1343;73487;-67
2021/12/13 02:58:28;;;;;;;32.50;12.70;;;;;;;-1.52;100.00;100693.56;100045;1340;68046;-67
2021/12/13 03:01:36;;;;;;;35.80;13.40;;;;;;;-1.49;100.00;100695.76;100060;1337;73130;-67
2021/12/13 03:04:29;;;;;;;44.60;16.20;;;;;;;-1.47;100.00;100697.98;100080;1337;59836;-67
2021/12/13 03:07:31;;;;;;;50.10;16.40;;;;;;;-1.46;100.00;100701.81;100300;1336;59733;-68
2021/12/13 03:10:31;;;;;;;51.20;18.10;;;;;;;-1.44;100.00;100699.16;100204;1340;73443;-67
2021/12/13 03:13:22;;;;;;;46.40;17.70;;;;;;;-1.41;100.00;100695.11;100055;1343;68121;-67
2021/12/13 03:16:25;;;;;;;34.80;11.20;;;;;;;-1.37;100.00;100688.93;99841;1342;73175;-67
2021/12/13 03:19:49;;;;;;;47.00;17.40;;;;;;;-1.35;100.00;100687.50;100173;1343;59859;-66
2021/12/13 03:23:03;;;;;;;37.40;14.10;;;;;;;-1.34;100.00;100688.01;100088;1336;59713;-67
2021/12/13 03:26:23;;;;;;;49.20;16.60;;;;;;;-1.38;100.00;100682.84;100064;1343;72101;-66
2021/12/13 03:29:19;;;;;;;41.20;16.30;;;;;;;-1.39;99.99;100682.52;100194;1343;67359;-67
2021/12/13 03:32:15;;;;;;;46.40;17.00;;;;;;;-1.40;100.00;100679.94;100098;1337;70806;-67
2021/12/13 03:35:15;;;;;;;39.80;15.20;;;;;;;-1.39;100.00;100679.39;100062;1337;59866;-66
2021/12/13 03:38:21;;;;;;;44.60;16.70;;;;;;;-1.40;99.99;100680.45;100281;1337;59705;-67
2021/12/13 03:41:19;;;;;;;48.50;17.60;;;;;;;-1.45;100.00;100687.53;100091;1340;73199;-67
2021/12/13 03:44:21;;;;;;;45.50;16.50;;;;;;;-1.47;100.00;100692.60;100027;1343;68329;-67
2021/12/13 03:47:21;;;;;;;38.70;15.20;;;;;;;-1.47;100.00;100695.73;100079;1340;73143;-67
2021/12/13 03:50:19;;;;;;;40.90;16.00;;;;;;;-1.45;99.98;100703.71;100051;1337;59815;-67
2021/12/13 03:53:20;;;;;;;40.90;14.70;;;;;;;-1.46;100.00;100704.75;99951;1337;60674;-68
2021/12/13 03:56:28;;;;;;;42.80;14.40;;;;;;;-1.46;99.93;100699.71;100104;1336;73825;-67
2021/12/13 03:59:23;;;;;;;50.50;17.00;;;;;;;-1.48;99.91;100700.61;100042;1342;68572;-67
2021/12/13 04:02:33;;;;;;;42.20;14.60;;;;;;;-1.50;99.88;100697.18;100208;1342;71768;-67
2021/12/13 04:05:28;;;;;;;42.50;13.30;;;;;;;-1.51;99.72;100698.93;100264;1337;59621;-66
2021/12/13 04:08:20;;;;;;;42.50;15.70;;;;;;;-1.54;99.82;100704.23;99400;1336;1003211;-67
2021/12/13 04:11:11;;;;;;;41.60;14.50;;;;;;;-1.59;99.86;100699.23;100159;1340;74029;-67
2021/12/13 04:14:16;;;;;;;38.90;12.80;;;;;;;-1.65;100.00;100697.95;100072;1337;68355;-68
2021/12/13 04:17:21;;;;;;;45.30;16.20;;;;;;;-1.67;100.00;100699.74;100098;1336;73110;-67
2021/12/13 04:20:33;;;;;;;48.60;16.30;;;;;;;-1.68;100.00;100703.58;100049;1336;60258;-67
2021/12/13 04:23:23;;;;;;;47.50;15.20;;;;;;;-1.66;100.00;100704.60;100275;1336;59746;-67
2021/12/13 04:26:12;;;;;;;42.20;16.60;;;;;;;-1.66;99.98;100706.52;100265;1334;72120;-67
2021/12/13 04:29:01;;;;;;;38.70;13.80;;;;;;;-1.69;100.00;100711.08;100086;1340;66792;-67
2021/12/13 04:31:51;;;;;;;41.10;14.20;;;;;;;-1.72;99.97;100717.91;99853;1333;71771;-68
2021/12/13 04:34:42;;;;;;;45.90;15.80;;;;;;;-1.74;100.00;100719.69;100481;1341;59729;-68
2021/12/13 04:37:44;;;;;;;48.00;17.20;;;;;;;-1.71;100.00;100721.38;100073;1333;60722;-68
2021/12/13 04:40:41;;;;;;;43.60;14.80;;;;;;;-1.66;100.00;100717.46;100276;1334;73695;-67
2021/12/13 04:43:35;;;;;;;41.50;15.30;;;;;;;-1.62;100.00;100718.08;99697;1337;1003818;-67
2021/12/13 04:46:28;;;;;;;47.40;15.30;;;;;;;-1.60;100.00;100724.32;100362;1337;71911;-67
2021/12/13 04:49:22;;;;;;;42.90;14.60;;;;;;;-1.61;100.00;100722.75;100186;1334;59767;-68
2021/12/13 04:52:19;;;;;;;43.40;14.50;;;;;;;-1.60;100.00;100726.92;100165;1334;60741;-67
2021/12/13 04:55:22;;;;;;;42.30;14.60;;;;;;;-1.56;100.00;100729.30;100160;1338;73997;-67
2021/12/13 04:58:13;;;;;;;34.80;13.60;;;;;;;-1.53;100.00;100736.74;100146;1334;68562;-67
2021/12/13 05:01:10;;;;;;;35.60;13.20;;;;;;;-1.54;100.00;100740.94;99835;1343;73536;-67
2021/12/13 05:04:04;;;;;;;47.20;16.20;;;;;;;-1.53;100.00;100739.17;100078;1337;59825;-68
2021/12/13 05:06:54;;;;;;;38.50;15.70;;;;;;;-1.50;100.00;100736.17;99953;1336;61136;-67
2021/12/13 05:09:47;;;;;;;45.80;15.50;;;;;;;-1.49;100.00;100741.90;100108;1337;73554;-67
2021/12/13 05:12:36;;;;;;;41.00;15.60;;;;;;;-1.47;100.00;100743.08;99942;1341;68332;-67
2021/12/13 05:15:26;;;;;;;44.60;15.50;;;;;;;-1.46;100.00;100743.93;99907;1339;73079;-67
2021/12/13 05:18:27;;;;;;;44.20;15.00;;;;;;;-1.46;100.00;100738.70;99790;1340;59746;-67
2021/12/13 05:21:40;;;;;;;43.20;15.10;;;;;;;-1.43;100.00;100744.06;100104;1337;59660;-67
2021/12/13 05:24:40;;;;;;;39.60;14.80;;;;;;;-1.38;100.00;100743.97;99847;1337;73430;-67
2021/12/13 05:27:39;;;;;;;45.20;16.50;;;;;;;-1.35;100.00;100742.88;99973;1337;66875;-67
2021/12/13 05:30:29;;;;;;;44.70;17.50;;;;;;;-1.34;100.00;100743.38;99854;1339;70212;-68
2021/12/13 05:33:20;;;;;;;51.10;19.00;;;;;;;-1.33;100.00;100740.39;99906;1337;364340;-68
2021/12/13 05:36:22;;;;;;;45.50;18.20;;;;;;;-1.34;100.00;100738.84;99877;1336;59820;-67
2021/12/13 05:39:17;;;;;;;45.10;17.50;;;;;;;-1.29;100.00;100742.23;100244;1337;74097;-67
2021/12/13 05:42:11;;;;;;;46.30;18.10;;;;;;;-1.26;100.00;100742.19;100017;1336;67095;-68
2021/12/13 05:45:01;;;;;;;46.00;17.10;;;;;;;-1.24;100.00;100745.80;99975;1340;73219;-68
2021/12/13 05:48:01;;;;;;;48.70;19.20;;;;;;;-1.24;100.00;100742.33;100121;1337;59796;-68
2021/12/13 05:50:58;;;;;;;59.50;20.80;;;;;;;-1.25;100.00;100741.46;100144;1336;60758;-68
2021/12/13 05:53:58;;;;;;;50.40;18.80;;;;;;;-1.23;100.00;100741.10;100173;1336;74999;-67
2021/12/13 05:57:09;;;;;;;48.00;19.60;;;;;;;-1.21;100.00;100747.31;100426;1337;68316;-67
2021/12/13 06:00:26;;;;;;;48.80;19.30;;;;;;;-1.19;100.00;100746.42;100236;1337;73076;-67
2021/12/13 06:03:18;;;;;;;48.80;18.50;;;;;;;-1.19;100.00;100751.30;100318;1336;60597;-68
2021/12/13 06:06:15;;;;;;;52.20;20.50;;;;;;;-1.20;100.00;100747.48;99877;1337;60729;-67
2021/12/13 06:09:04;;;;;;;56.80;20.80;;;;;;;-1.16;100.00;100755.95;100113;1336;73438;-68
2021/12/13 06:12:04;;;;;;;43.60;17.70;;;;;;;-1.14;100.00;100755.38;100177;1336;68245;-68
2021/12/13 06:14:55;;;;;;;42.10;17.30;;;;;;;-1.12;100.00;100753.42;100166;1336;73528;-69
2021/12/13 06:18:03;;;;;;;43.10;17.20;;;;;;;-1.09;100.00;100759.13;100147;1336;59748;-69
2021/12/13 06:22:03;;;;;;;49.10;19.40;;;;;;;-1.09;99.95;100762.44;99970;1340;59692;-70
2021/12/13 06:25:01;;;;;;;46.10;17.10;;;;;;;-1.09;99.96;100760.51;99617;1349;73862;-69
2021/12/13 06:27:59;;;;;;;51.00;19.30;;;;;;;-1.06;99.91;100758.71;99548;1346;68275;-69
2021/12/13 06:30:59;;;;;;;44.20;16.60;;;;;;;-1.05;99.99;100755.55;99452;1345;71743;-68
2021/12/13 06:33:57;;;;;;;45.30;18.30;;;;;;;-1.02;99.96;100758.11;99682;1342;59758;-69
2021/12/13 06:36:52;;;;;;;45.20;17.90;;;;;;;-1.01;100.00;100754.80;99579;1343;60433;-69
2021/12/13 06:39:41;;;;;;;41.50;16.60;;;;;;;-1.02;99.96;100760.55;99318;1348;73782;-70
2021/12/13 06:42:30;;;;;;;58.20;20.90;;;;;;;-1.01;99.95;100767.70;99559;1349;67165;-69
2021/12/13 06:45:32;;;;;;;52.30;20.30;;;;;;;-0.99;99.97;100772.16;99670;1344;70916;-68
2021/12/13 06:48:36;;;;;;;51.30;19.30;;;;;;;-0.96;99.92;100776.30;99585;1345;59863;-68
2021/12/13 06:51:59;;;;;;;49.30;18.90;;;;;;;-0.96;99.95;100778.04;99724;1342;60786;-68
2021/12/13 06:55:05;;;;;;;40.90;17.30;;;;;;;-0.94;100.00;100779.40;99515;1345;71607;-67
2021/12/13 06:57:58;;;;;;;53.00;20.00;;;;;;;-0.95;99.96;100781.33;99480;1346;68746;-68
2021/12/13 07:00:52;;;;;;;49.90;16.70;;;;;;;-0.95;99.98;100782.73;99824;1340;73082;-68
2021/12/13 07:03:56;;;;;;;39.50;15.90;;;;;;;-0.93;99.97;100781.13;100041;1337;59835;-67
2021/12/13 07:06:45;;;;;;;42.30;16.50;;;;;;;-0.92;100.00;100782.51;100060;1330;60657;-69
2021/12/13 07:09:37;;;;;;;42.00;16.60;;;;;;;-0.91;100.00;100787.02;99970;1340;73400;-68
2021/12/13 07:12:31;;;;;;;54.10;20.30;;;;;;;-0.90;100.00;100790.12;99182;1337;1003939;-68
2021/12/13 07:15:38;;;;;;;50.20;18.50;;;;;;;-0.86;100.00;100797.20;100030;1340;73139;-68
2021/12/13 07:19:02;;;;;;;43.40;17.20;;;;;;;-0.83;99.99;100796.27;99851;1340;59770;-70
2021/12/13 07:21:59;;;;;;;36.10;13.70;;;;;;;-0.79;99.91;100801.25;100398;1340;59631;-68
2021/12/13 07:25:16;;;;;;;41.20;17.60;;;;;;;-0.78;99.86;100798.27;100266;1336;73669;-68
2021/12/13 07:28:09;;;;;;;53.50;19.60;;;;;;;-0.75;99.96;100796.98;100435;1337;67879;-70
2021/12/13 07:31:00;;;;;;;55.60;20.00;;;;;;;-0.75;99.86;100796.64;100418;1340;72929;-68
2021/12/13 07:33:52;;;;;;;56.10;19.90;;;;;;;-0.75;99.70;100799.79;100378;1337;59783;-68
2021/12/13 07:36:42;;;;;;;48.90;20.20;;;;;;;-0.74;99.87;100801.65;100108;1336;59733;-68
2021/12/13 07:39:32;;;;;;;47.40;19.30;;;;;;;-0.72;99.76;100803.21;99867;1340;72158;-69
2021/12/13 07:42:22;;;;;;;40.50;18.00;;;;;;;-0.71;99.69;100803.36;99815;1339;67080;-69
2021/12/13 07:46:00;;;;;;;48.60;19.10;;;;;;;-0.70;99.67;100806.65;100017;1342;71972;-68
2021/12/13 07:49:04;;;;;;;50.60;18.40;;;;;;;-0.63;99.77;100810.54;99687;1343;59757;-68
2021/12/13 07:51:56;;;;;;;46.80;19.30;;;;;;;-0.56;99.45;100811.27;99703;1342;60903;-67
2021/12/13 07:54:45;;;;;;;46.20;19.10;;;;;;;-0.52;99.05;100811.71;99459;1349;72577;-69
2021/12/13 07:57:34;;;;;;;48.30;19.00;;;;;;;-0.48;98.99;100818.61;98795;1342;1003076;-69
2021/12/13 08:00:31;;;;;;;48.50;19.20;;;;;;;-0.46;98.78;100814.91;99761;1342;71390;-69
2021/12/13 08:03:26;;;;;;;47.20;18.30;;;;;;;-0.45;98.59;100815.41;99378;1343;59729;-69
2021/12/13 08:06:16;;;;;;;42.60;16.40;;;;;;;-0.41;98.45;100818.11;99615;1347;59848;-69
2021/12/13 08:09:12;;;;;;;44.70;17.20;;;;;;;-0.38;98.27;100817.16;99577;1343;72332;-68
2021/12/13 08:12:20;;;;;;;44.10;17.50;;;;;;;-0.35;98.07;100813.98;99462;1343;67241;-68
2021/12/13 08:15:17;;;;;;;45.60;19.20;;;;;;;-0.33;97.86;100815.51;99703;1346;71942;-68
2021/12/13 08:18:42;;;;;;;47.20;20.10;;;;;;;-0.28;97.78;100821.67;99690;1342;59773;-68
2021/12/13 08:21:41;;;;;;;46.60;18.40;;;;;;;-0.20;97.36;100829.55;99680;1342;60597;-68
2021/12/13 08:24:42;;;;;;;42.90;16.80;;;;;;;-0.13;97.24;100830.79;99424;1343;70937;-68
2021/12/13 08:27:41;;;;;;;46.50;18.60;;;;;;;-0.07;96.84;100834.52;99513;1337;1003563;-69
2021/12/13 08:30:43;;;;;;;43.80;17.00;;;;;;;-0.03;96.63;100840.52;99506;1340;1003486;-69
2021/12/13 08:33:49;;;;;;;47.60;18.80;;;;;;;0.02;96.40;100843.90;100147;1340;59739;-68
2021/12/13 08:36:48;;;;;;;43.30;17.30;;;;;;;0.11;96.76;100848.08;100275;1336;59765;-68
2021/12/13 08:39:38;;;;;;;46.00;18.10;;;;;;;0.19;96.02;100851.73;99996;1336;72153;-68
2021/12/13 08:42:31;;;;;;;44.70;17.10;;;;;;;0.22;95.89;100855.53;100189;1336;66680;-67
2021/12/13 08:45:39;;;;;;;47.80;18.80;;;;;;;0.21;96.01;100856.74;100338;1336;71818;-67
2021/12/13 08:48:29;;;;;;;48.60;19.60;;;;;;;0.20;96.10;100862.36;100078;1336;59827;-68
2021/12/13 08:51:26;;;;;;;51.40;19.90;;;;;;;0.18;95.99;100860.67;99781;1337;59799;-67
2021/12/13 08:54:16;;;;;;;50.50;18.40;;;;;;;0.17;95.95;100864.17;100392;1340;71930;-67
2021/12/13 08:57:10;;;;;;;48.10;18.90;;;;;;;0.17;96.04;100864.36;100198;1337;67052;-68
2021/12/13 09:00:27;;;;;;;52.70;19.80;;;;;;;0.18;96.07;100860.67;99779;1343;73123;-68
2021/12/13 09:03:32;;;;;;;54.40;20.50;;;;;;;0.21;96.14;100864.97;99736;1339;60248;-68
2021/12/13 09:06:31;;;;;;;51.00;20.60;;;;;;;0.29;96.18;100870.55;100132;1336;59796;-67
2021/12/13 09:09:21;;;;;;;50.40;19.10;;;;;;;0.37;95.74;100871.77;99703;1340;72271;-68
2021/12/13 09:12:15;;;;;;;53.90;20.20;;;;;;;0.42;95.58;100871.83;100149;1337;68667;-67
2021/12/13 09:15:18;;;;;;;47.60;18.70;;;;;;;0.42;95.17;100872.02;100159;1337;72543;-68
2021/12/13 09:18:17;;;;;;;54.20;19.80;;;;;;;0.42;95.40;100868.33;99505;1337;1003180;-68
2021/12/13 09:21:08;;;;;;;52.60;20.40;;;;;;;0.43;95.20;100862.90;100086;1336;59731;-69
2021/12/13 09:24:00;;;;;;;47.80;19.00;;;;;;;0.47;95.22;100861.24;100082;1337;73644;-69
2021/12/13 09:26:50;;;;;;;44.50;18.50;;;;;;;0.54;95.33;100861.95;100163;1337;68823;-69
2021/12/13 09:30:23;;;;;;;46.60;17.80;;;;;;;0.60;94.89;100864.61;99115;1337;1003899;-68
2021/12/13 09:33:30;;;;;;;50.00;18.90;;;;;;;0.59;94.75;100866.20;99827;1336;59823;-67
2021/12/13 09:36:29;;;;;;;52.00;20.40;;;;;;;0.65;94.72;100869.56;100147;1336;59791;-69
2021/12/13 09:39:30;;;;;;;42.70;16.40;;;;;;;0.69;94.76;100871.02;100363;1337;72092;-69
2021/12/13 09:42:19;;;;;;;46.70;18.60;;;;;;;0.70;94.10;100867.00;100095;1340;67101;-68
2021/12/13 09:45:09;;;;;;;47.80;19.10;;;;;;;0.67;94.46;100864.59;99199;1340;1002992;-69
2021/12/13 09:48:10;;;;;;;54.60;20.40;;;;;;;0.67;94.45;100865.14;100253;1335;59872;-69
2021/12/13 09:51:33;;;;;;;44.20;17.00;;;;;;;0.66;94.86;100868.11;99911;1340;60465;-68
2021/12/13 09:54:30;;;;;;;42.90;17.50;;;;;;;0.65;94.69;100867.61;100547;1335;71707;-69
2021/12/13 09:57:46;;;;;;;46.40;18.60;;;;;;;0.66;95.03;100863.58;100373;1336;68295;-69
2021/12/13 10:00:56;;;;;;;40.60;15.90;;;;;;;0.66;95.08;100861.29;100249;1340;73168;-69
2021/12/13 10:04:00;;;;;;;48.50;18.80;;;;;;;0.63;95.33;100862.25;99820;1340;59763;-69
2021/12/13 10:07:05;;;;;;;49.10;18.40;;;;;;;0.63;95.40;100864.72;100063;1337;60584;-69
2021/12/13 10:10:06;;;;;;;49.70;19.30;;;;;;;0.69;95.58;100865.27;100161;1337;73578;-67
2021/12/13 10:13:03;;;;;;;48.30;18.90;;;;;;;0.71;95.60;100863.64;100103;1336;68202;-68
2021/12/13 10:16:07;;;;;;;48.40;17.90;;;;;;;0.75;95.83;100864.94;99606;1340;73131;-69
2021/12/13 10:18:56;;;;;;;43.60;18.40;;;;;;;0.83;95.61;100863.88;99841;1343;59764;-68
2021/12/13 10:21:48;;;;;;;48.40;18.40;;;;;;;0.90;95.86;100867.20;99646;1340;60821;-68
2021/12/13 10:24:50;;;;;;;42.40;16.60;;;;;;;0.96;95.32;100860.22;99600;1340;72264;-68
2021/12/13 10:27:41;;;;;;;50.60;20.40;;;;;;;0.96;94.78;100848.52;99670;1345;68523;-68
2021/12/13 10:30:39;;;;;;;51.00;21.20;;;;;;;1.01;95.12;100847.70;99804;1340;73303;-69
2021/12/13 10:33:38;;;;;;;60.00;21.70;;;;;;;1.03;95.02;100844.50;99624;1339;59800;-68
2021/12/13 10:36:28;;;;;;;52.60;22.40;;;;;;;1.00;94.85;100846.66;100042;1340;59856;-69
2021/12/13 10:39:29;;;;;;;59.10;24.20;;;;;;;1.00;94.87;100845.63;99812;1343;72362;-70
2021/12/13 10:42:36;;;;;;;56.50;25.40;;;;;;;0.97;94.81;100843.44;99929;1340;66914;-68
2021/12/13 10:45:33;;;;;;;59.10;24.20;;;;;;;1.00;95.05;100838.64;99991;1340;71617;-68
2021/12/13 10:48:27;;;;;;;57.40;22.50;;;;;;;1.05;94.94;100829.77;100390;1340;59719;-68
2021/12/13 10:51:23;;;;;;;49.30;20.60;;;;;;;1.06;94.78;100829.76;100255;1337;59733;-69
2021/12/13 10:54:19;;;;;;;58.50;24.60;;;;;;;1.02;94.51;100830.54;100324;1337;72907;-69
2021/12/13 10:57:19;;;;;;;52.50;20.80;;;;;;;1.01;94.64;100831.10;100268;1334;65665;-68
2021/12/13 11:00:27;;;;;;;52.10;21.40;;;;;;;1.00;94.74;100834.44;100018;1336;73725;-68
2021/12/13 11:03:22;;;;;;;55.50;22.90;;;;;;;1.01;94.87;100838.96;99857;1337;59660;-69
2021/12/13 11:06:17;;;;;;;43.60;15.80;;;;;;;1.05;95.24;100834.69;100163;1337;60709;-69
2021/12/13 11:09:14;;;;;;;49.00;21.00;;;;;;;1.07;94.80;100838.29;99932;1338;73864;-69
2021/12/13 11:12:18;;;;;;;49.40;20.10;;;;;;;1.10;94.97;100835.06;100145;1334;68247;-68
2021/12/13 11:15:32;;;;;;;50.60;20.00;;;;;;;1.13;94.86;100837.27;99924;1344;73243;-69
2021/12/13 11:18:28;;;;;;;49.00;20.10;;;;;;;1.18;94.85;100839.92;100068;1340;60867;-69
2021/12/13 11:21:30;;;;;;;51.50;21.30;;;;;;;1.16;94.68;100841.02;99628;1340;1003205;-68
2021/12/13 11:24:25;;;;;;;56.30;23.90;;;;;;;1.13;94.81;100843.20;100115;1340;73963;-68
2021/12/13 11:27:31;;;;;;;57.30;24.00;;;;;;;1.12;94.66;100844.61;100079;1337;68443;-69
2021/12/13 11:30:26;;;;;;;56.70;24.30;;;;;;;1.15;94.96;100839.83;99923;1336;71385;-68
2021/12/13 11:33:22;;;;;;;51.90;20.80;;;;;;;1.21;94.79;100834.61;100340;1337;59749;-68
2021/12/13 11:37:24;;;;;;;50.10;20.90;;;;;;;1.22;94.55;100835.27;100346;1337;59677;-68
2021/12/13 11:40:45;;;;;;;44.30;17.80;;;;;;;1.21;94.40;100838.63;100257;1341;71232;-69
2021/12/13 11:44:09;;;;;;;48.60;20.30;;;;;;;1.18;94.67;100834.48;100071;1336;68154;-68
2021/12/13 11:47:30;;;;;;;58.60;22.30;;;;;;;1.18;94.55;100833.64;100245;1337;72880;-68
2021/12/13 11:50:53;;;;;;;53.30;19.80;;;;;;;1.20;94.73;100833.92;100240;1337;61390;-69
2021/12/13 11:54:20;;;;;;;50.00;19.90;;;;;;;1.26;94.90;100832.20;100192;1340;60509;-68
2021/12/13 11:57:33;;;;;;;49.60;21.10;;;;;;;1.26;94.69;100833.07;100181;1336;73924;-68
2021/12/13 12:01:04;;;;;;;52.20;21.90;;;;;;;1.30;95.05;100831.20;99730;1340;68608;-68
2021/12/13 12:04:50;;;;;;;50.00;18.90;;;;;;;1.40;94.82;100829.02;100287;1336;71810;-69
2021/12/13 12:08:35;;;;;;;51.90;20.00;;;;;;;1.46;94.51;100822.38;100000;1336;59763;-68
2021/12/13 12:11:50;;;;;;;51.80;21.10;;;;;;;1.53;94.61;100823.58;100078;1340;59727;-68
2021/12/13 12:14:42;;;;;;;43.40;19.10;;;;;;;1.61;94.70;100816.70;100253;1337;73299;-68
2021/12/13 12:17:33;;;;;;;50.70;20.80;;;;;;;1.67;94.92;100817.24;99727;1336;68516;-68
2021/12/13 12:20:39;;;;;;;50.00;21.10;;;;;;;1.69;94.36;100817.53;99746;1343;73373;-68
2021/12/13 12:23:33;;;;;;;52.00;22.90;;;;;;;1.68;94.04;100815.29;99618;1340;59844;-69
2021/12/13 12:26:22;;;;;;;54.50;22.80;;;;;;;1.65;93.73;100820.45;99601;1338;60900;-68
2021/12/13 12:29:23;;;;;;;44.50;20.70;;;;;;;1.61;93.90;100826.85;99680;1340;73471;-68
2021/12/13 12:32:34;;;;;;;49.30;20.30;;;;;;;1.51;93.75;100829.59;99850;1345;68418;-68
2021/12/13 12:35:47;;;;;;;39.40;15.90;;;;;;;1.44;94.31;100832.41;99601;1343;74265;-68
2021/12/13 12:39:04;;;;;;;53.50;21.40;;;;;;;1.33;94.44;100835.15;99645;1344;59726;-68
2021/12/13 12:42:23;;;;;;;37.30;14.90;;;;;;;1.26;94.70;100833.77;99666;1345;60712;-69
2021/12/13 12:45:24;;;;;;;48.80;20.90;;;;;;;1.15;95.17;100833.70;99827;1340;74182;-68
2021/12/13 12:48:18;;;;;;;54.40;21.30;;;;;;;1.11;95.41;100835.03;99860;1345;67195;-68
2021/12/13 12:51:18;;;;;;;48.00;19.60;;;;;;;1.07;95.55;100837.77;100033;1339;71513;-68
2021/12/13 12:54:15;;;;;;;50.10;19.80;;;;;;;1.04;95.77;100838.37;99812;1343;59966;-68
2021/12/13 12:57:07;;;;;;;52.80;23.10;;;;;;;1.03;95.78;100846.60;99908;1338;59797;-68
2021/12/13 12:59:57;;;;;;;52.80;20.40;;;;;;;1.06;95.92;100847.23;100021;1340;73179;-68
2021/12/13 13:03:14;;;;;;;52.90;20.80;;;;;;;1.03;95.89;100836.82;100336;1334;66584;-68
2021/12/13 13:06:11;;;;;;;54.20;21.30;;;;;;;1.04;96.12;100836.27;100017;1341;71530;-68
2021/12/13 13:09:08;;;;;;;47.20;18.20;;;;;;;1.01;96.08;100836.86;100186;1336;59883;-68
2021/12/13 13:11:57;;;;;;;55.10;21.90;;;;;;;0.96;96.42;100835.94;100028;1337;59828;-68
2021/12/13 13:15:23;;;;;;;50.70;19.90;;;;;;;0.91;96.51;100839.04;100097;1333;74157;-68
2021/12/13 13:18:22;;;;;;;53.70;21.20;;;;;;;0.89;96.68;100842.42;100288;1334;68500;-69
2021/12/13 13:21:11;;;;;;;55.70;22.00;;;;;;;0.89;96.77;100842.23;100074;1333;73432;-69
2021/12/13 13:24:02;;;;;;;45.80;17.90;;;;;;;0.89;96.90;100845.04;100057;1337;59704;-70
2021/12/13 13:26:51;;;;;;;51.50;20.80;;;;;;;0.84;96.98;100843.75;100310;1337;60681;-68
2021/12/13 13:29:41;;;;;;;60.40;25.00;;;;;;;0.79;97.26;100845.27;100204;1336;73741;-68
2021/12/13 13:32:37;;;;;;;54.80;21.90;;;;;;;0.78;97.23;100845.14;100182;1339;68288;-68
2021/12/13 13:35:27;;;;;;;61.40;24.80;;;;;;;0.80;97.41;100848.75;99988;1330;73463;-68
2021/12/13 13:38:23;;;;;;;48.30;20.00;;;;;;;0.81;97.32;100850.64;100160;1337;59944;-68
2021/12/13 13:41:20;;;;;;;34.60;14.90;;;;;;;0.83;97.47;100859.34;100159;1334;59733;-68